createdAt,value
2023-01-11T00:01:13.625Z,30.17
2023-01-11T00:03:42.120Z,31.00
2023-01-11T00:06:11.153Z,32.30
2023-01-11T00:08:39.711Z,32.37
2023-01-11T00:11:13.993Z,30.07
2023-01-11T00:13:42.413Z,30.97
2023-01-11T00:16:11.171Z,29.70
2023-01-11T00:18:41.079Z,29.00
2023-01-11T00:21:09.644Z,30.23
2023-01-11T00:23:38.889Z,28.90
2023-01-11T00:26:07.431Z,29.67
2023-01-11T00:28:37.570Z,28.30
2023-01-11T00:31:06.017Z,27.97
2023-01-11T00:33:34.444Z,29.83
2023-01-11T00:36:02.779Z,29.67
2023-01-11T00:38:51.511Z,30.40
2023-01-11T00:41:37.337Z,29.90
2023-01-11T00:44:25.001Z,31.23
2023-01-11T00:47:10.797Z,31.33
2023-01-11T00:49:39.109Z,33.43
2023-01-11T00:52:09.416Z,31.33
2023-01-11T00:54:38.135Z,33.30
2023-01-11T00:57:07.405Z,31.50
2023-01-11T00:59:37.278Z,31.93
2023-01-11T01:02:05.953Z,31.63
2023-01-11T01:04:34.258Z,32.37
2023-01-11T01:07:02.651Z,31.37
2023-01-11T01:09:30.994Z,31.90
2023-01-11T01:11:59.408Z,34.23
2023-01-11T01:14:26.708Z,33.23
2023-01-11T01:16:57.241Z,30.77
2023-01-11T01:19:27.762Z,31.40
2023-01-11T01:21:56.679Z,33.33
2023-01-11T01:24:25.034Z,33.73
2023-01-11T01:26:53.360Z,34.80
2023-01-11T01:29:21.868Z,34.70
2023-01-11T01:31:50.206Z,33.87
2023-01-11T01:34:19.904Z,33.50
2023-01-11T01:36:48.347Z,34.30
2023-01-11T01:39:16.621Z,34.27
2023-01-11T01:41:45.147Z,33.30
2023-01-11T01:44:56.768Z,34.87
2023-01-11T01:47:27.755Z,35.27
2023-01-11T01:49:57.820Z,34.47
2023-01-11T01:52:29.493Z,34.97
2023-01-11T01:54:58.625Z,34.33
2023-01-11T01:57:28.706Z,35.43
2023-01-11T01:59:57.721Z,33.90
2023-01-11T02:02:26.333Z,36.40
2023-01-11T02:04:56.911Z,36.77
2023-01-11T02:07:28.208Z,37.67
2023-01-11T02:10:00.784Z,37.47
2023-01-11T02:12:31.385Z,39.33
2023-01-11T02:15:00.977Z,36.70
2023-01-11T02:17:29.302Z,38.47
2023-01-11T02:20:01.174Z,37.57
2023-01-11T02:23:23.485Z,38.93
2023-01-11T02:26:25.269Z,37.30
2023-01-11T02:28:55.745Z,37.83
2023-01-11T02:31:30.066Z,38.40
2023-01-11T02:34:03.797Z,39.60
2023-01-11T02:36:34.870Z,38.30
2023-01-11T02:39:05.599Z,38.47
2023-01-11T02:41:56.486Z,40.50
2023-01-11T02:44:46.206Z,40.27
2023-01-11T02:47:18.716Z,38.30
2023-01-11T02:49:50.339Z,39.13
2023-01-11T02:52:21.828Z,38.43
2023-01-11T02:54:54.565Z,37.60
2023-01-11T02:57:22.944Z,37.80
2023-01-11T02:59:55.239Z,40.00
2023-01-11T03:02:23.615Z,42.43
2023-01-11T03:04:51.920Z,39.43
2023-01-11T03:07:31.482Z,41.00
2023-01-11T03:10:06.752Z,39.67
2023-01-11T03:12:56.063Z,38.33
2023-01-11T03:15:32.701Z,37.67
2023-01-11T03:18:06.040Z,42.20
2023-01-11T03:20:36.578Z,40.97
2023-01-11T03:23:11.017Z,42.77
2023-01-11T03:25:43.683Z,43.47
2023-01-11T03:28:15.241Z,47.30
2023-01-11T03:30:48.693Z,44.30
2023-01-11T03:33:19.373Z,44.87
2023-01-11T03:35:48.740Z,46.20
2023-01-11T03:38:19.365Z,47.33
2023-01-11T03:40:48.785Z,45.97
2023-01-11T03:43:17.163Z,46.30
2023-01-11T03:45:49.006Z,46.07
2023-01-11T03:48:19.439Z,42.93
2023-01-11T03:50:47.918Z,43.77
2023-01-11T03:53:16.304Z,43.83
2023-01-11T03:55:44.611Z,42.80
2023-01-11T03:58:13.045Z,40.80
2023-01-11T04:00:41.351Z,39.80
2023-01-11T04:03:12.729Z,41.13
2023-01-11T04:05:41.145Z,39.57
2023-01-11T04:08:09.517Z,41.87
2023-01-11T04:10:37.830Z,42.37
2023-01-11T04:13:06.326Z,40.87
2023-01-11T04:15:35.922Z,44.80
2023-01-11T04:18:05.926Z,44.10
2023-01-11T04:20:36.078Z,44.43
2023-01-11T04:23:04.435Z,46.83
2023-01-11T04:25:32.792Z,45.20
2023-01-11T04:28:01.223Z,45.10
2023-01-11T04:30:29.580Z,43.60
2023-01-11T04:32:58.910Z,42.90
2023-01-11T04:35:27.196Z,41.23
2023-01-11T04:37:57.064Z,41.13
2023-01-11T04:40:25.502Z,41.13
2023-01-11T04:42:52.908Z,42.20
2023-01-11T04:45:21.225Z,42.87
2023-01-11T04:47:55.471Z,45.30
2023-01-11T04:50:24.480Z,46.37
2023-01-11T04:52:52.921Z,47.20
2023-01-11T04:55:22.739Z,46.33
2023-01-11T04:57:51.077Z,46.23
2023-01-11T05:00:20.274Z,49.00
2023-01-11T05:02:48.809Z,50.30
2023-01-11T05:05:17.104Z,48.77
2023-01-11T05:07:45.435Z,45.63
2023-01-11T05:10:13.745Z,43.50
2023-01-11T05:12:43.621Z,43.27
2023-01-11T05:15:12.982Z,47.23
2023-01-11T05:17:41.339Z,47.70
2023-01-11T05:20:11.805Z,52.13
2023-01-11T05:22:40.151Z,56.57
2023-01-11T05:25:09.329Z,62.53
2023-01-11T05:27:37.739Z,57.83
2023-01-11T05:30:09.215Z,65.77
2023-01-11T05:32:37.650Z,70.20
2023-01-11T05:35:10.133Z,75.43
2023-01-11T05:37:38.509Z,68.33
2023-01-11T05:40:08.061Z,63.17
2023-01-11T05:42:36.370Z,53.70
2023-01-11T05:45:24.323Z,53.50
2023-01-11T05:47:54.993Z,52.87
2023-01-11T05:50:23.358Z,52.43
2023-01-11T05:52:51.668Z,44.00
2023-01-11T05:55:20.012Z,46.10
2023-01-11T05:57:48.353Z,45.90
2023-01-11T06:00:19.314Z,45.97
2023-01-11T06:02:47.765Z,42.97
2023-01-11T06:05:16.307Z,42.03
2023-01-11T06:07:44.784Z,40.40
2023-01-11T06:10:13.318Z,40.20
2023-01-11T06:12:41.729Z,39.87
2023-01-11T06:15:10.980Z,40.53
2023-01-11T06:17:41.201Z,40.27
2023-01-11T06:20:11.179Z,42.03
2023-01-11T06:22:39.534Z,39.30
2023-01-11T06:25:08.383Z,43.23
2023-01-11T06:27:36.909Z,40.43
2023-01-11T06:30:05.833Z,42.87
2023-01-11T06:32:34.218Z,38.87
2023-01-11T06:35:03.907Z,39.83
2023-01-11T06:37:32.226Z,42.17
2023-01-11T06:40:00.583Z,42.07
2023-01-11T06:42:29.163Z,44.00
2023-01-11T06:44:57.533Z,43.20
2023-01-11T06:47:25.874Z,48.33
2023-01-11T06:49:54.194Z,47.97
2023-01-11T06:52:24.440Z,53.57
2023-01-11T06:54:52.787Z,56.30
2023-01-11T06:57:21.143Z,69.23
2023-01-11T06:59:49.506Z,65.63
2023-01-11T07:02:17.994Z,73.03
2023-01-11T07:04:46.397Z,63.70
2023-01-11T07:07:14.749Z,87.83
2023-01-11T07:09:44.543Z,81.97
2023-01-11T07:12:13.066Z,80.23
2023-01-11T07:14:41.368Z,72.87
2023-01-11T07:17:09.739Z,80.80
2023-01-11T07:19:38.233Z,85.60
2023-01-11T07:22:07.992Z,101.40
2023-01-11T07:24:36.318Z,60.27
2023-01-11T07:27:06.139Z,138.33
2023-01-11T07:29:34.420Z,71.33
2023-01-11T07:32:02.839Z,119.93
2023-01-11T07:34:31.179Z,79.07
2023-01-11T07:36:59.604Z,106.17
2023-01-11T07:39:42.253Z,125.23
2023-01-11T07:42:30.461Z,112.27
2023-01-11T07:44:58.898Z,76.20
2023-01-11T07:47:27.739Z,118.50
2023-01-11T07:49:56.080Z,92.43
2023-01-11T07:52:24.392Z,78.87
2023-01-11T07:54:52.765Z,96.10
2023-01-11T07:57:22.566Z,69.03
2023-01-11T07:59:50.918Z,79.17
2023-01-11T08:02:19.431Z,63.37
2023-01-11T08:04:47.817Z,57.20
2023-01-11T08:07:16.165Z,54.27
2023-01-11T08:09:44.575Z,51.53
2023-01-11T08:12:30.333Z,55.00
2023-01-11T08:14:59.999Z,44.93
2023-01-11T08:17:28.258Z,48.27
2023-01-11T08:19:57.022Z,81.03
2023-01-11T08:22:25.515Z,65.47
2023-01-11T08:24:53.817Z,53.47
2023-01-11T08:27:22.345Z,55.73
2023-01-11T08:29:50.654Z,43.47
2023-01-11T08:32:20.333Z,51.77
2023-01-11T08:34:48.930Z,50.43
2023-01-11T08:37:17.300Z,44.27
2023-01-11T08:39:45.652Z,43.20
2023-01-11T08:42:14.054Z,53.93
2023-01-11T08:44:42.567Z,48.27
2023-01-11T08:47:14.134Z,48.33
2023-01-11T08:49:43.968Z,42.93
2023-01-11T08:52:14.452Z,50.97
2023-01-11T08:54:42.832Z,45.47
2023-01-11T08:57:11.479Z,39.80
2023-01-11T08:59:39.689Z,38.70
2023-01-11T09:02:08.005Z,39.77
2023-01-11T09:04:36.256Z,37.87
2023-01-11T09:07:05.929Z,39.87
2023-01-11T09:09:34.232Z,38.80
2023-01-11T09:12:05.490Z,37.83
2023-01-11T09:14:34.454Z,43.93
2023-01-11T09:17:02.745Z,39.23
2023-01-11T09:19:33.438Z,39.67
2023-01-11T09:22:03.067Z,46.20
2023-01-11T09:24:32.730Z,41.50
2023-01-11T09:27:01.245Z,40.03
2023-01-11T09:29:29.585Z,42.30
2023-01-11T09:31:57.913Z,42.87
2023-01-11T09:34:27.397Z,45.90
2023-01-11T09:36:56.740Z,45.87
2023-01-11T09:39:27.572Z,48.57
2023-01-11T09:42:31.660Z,41.77
2023-01-11T09:45:02.712Z,40.40
2023-01-11T09:47:33.980Z,41.87
2023-01-11T09:50:03.353Z,37.80
2023-01-11T09:52:37.143Z,33.27
2023-01-11T09:55:05.850Z,33.73
2023-01-11T09:57:42.697Z,37.43
2023-01-11T10:00:16.690Z,35.10
2023-01-11T10:02:53.938Z,37.03
2023-01-11T10:05:39.414Z,34.73
2023-01-11T10:18:23.090Z,34.27
2023-01-11T10:18:33.348Z,37.57
2023-01-11T10:19:48.210Z,33.07
2023-01-11T10:22:19.040Z,30.80
2023-01-11T10:24:48.544Z,30.10
2023-01-11T10:27:22.501Z,30.00
2023-01-11T10:30:09.105Z,31.70
2023-01-11T10:33:05.948Z,30.20
2023-01-11T10:35:59.057Z,29.27
2023-01-11T10:38:42.785Z,28.77
2023-01-11T10:41:25.933Z,25.87
2023-01-11T10:44:00.984Z,28.50
2023-01-11T10:46:30.626Z,27.37
2023-01-11T10:49:03.770Z,25.67
2023-01-11T10:51:36.567Z,25.70
2023-01-11T10:54:12.404Z,26.50
2023-01-11T10:57:03.260Z,26.23
2023-01-11T10:59:55.688Z,25.57
2023-01-11T11:02:35.272Z,26.30
2023-01-11T11:05:10.779Z,26.83
2023-01-11T11:07:42.443Z,24.53
2023-01-11T11:10:14.130Z,22.90
2023-01-11T11:12:45.064Z,24.33
2023-01-11T11:15:15.668Z,23.53
2023-01-11T11:17:47.025Z,23.87
2023-01-11T11:20:15.842Z,25.17
2023-01-11T11:22:45.095Z,21.27
2023-01-11T11:25:16.616Z,22.00
2023-01-11T11:27:46.532Z,20.57
2023-01-11T11:30:15.875Z,25.67
2023-01-11T11:32:47.991Z,28.33
2023-01-11T11:35:31.930Z,26.67
2023-01-11T11:38:00.362Z,25.07
2023-01-11T11:40:31.061Z,18.60
2023-01-11T11:43:15.913Z,21.30
2023-01-11T11:45:55.514Z,18.93
2023-01-11T11:48:25.541Z,18.47
2023-01-11T11:50:54.763Z,25.50
2023-01-11T11:53:34.964Z,22.60
2023-01-11T11:56:08.379Z,18.83
2023-01-11T11:58:37.325Z,15.97
2023-01-11T12:01:08.313Z,20.57
2023-01-11T12:03:38.072Z,17.03
2023-01-11T12:06:07.530Z,17.10
2023-01-11T12:08:36.089Z,19.73
2023-01-11T12:11:05.132Z,19.80
2023-01-11T12:13:34.850Z,20.67
2023-01-11T12:16:04.071Z,22.33
2023-01-11T12:18:33.732Z,22.40
2023-01-11T12:21:18.511Z,26.80
2023-01-11T12:23:46.834Z,25.03
2023-01-11T12:26:22.830Z,25.43
2023-01-11T12:28:58.970Z,24.53
2023-01-11T12:31:30.528Z,24.97
2023-01-11T12:34:04.705Z,25.97
2023-01-11T12:36:37.594Z,24.20
2023-01-11T12:39:08.125Z,22.63
2023-01-11T12:42:06.545Z,20.00
2023-01-11T12:44:44.526Z,17.63
2023-01-11T12:47:41.077Z,17.13
2023-01-11T12:50:10.870Z,14.47
2023-01-11T12:52:59.781Z,13.03
2023-01-11T12:55:40.420Z,13.50
2023-01-11T12:58:14.157Z,13.67
2023-01-11T13:00:56.074Z,13.30
2023-01-11T13:03:46.992Z,12.10
2023-01-11T13:06:16.490Z,10.20
2023-01-11T13:09:01.252Z,10.73
2023-01-11T13:11:37.627Z,10.13
2023-01-11T13:14:16.027Z,10.43
2023-01-11T13:16:47.467Z,10.73
2023-01-11T13:19:18.148Z,9.70
2023-01-11T13:21:53.491Z,9.53
2023-01-11T13:24:26.614Z,9.80
2023-01-11T13:26:55.925Z,8.77
2023-01-11T13:29:26.941Z,8.23
2023-01-11T13:31:55.202Z,8.50
2023-01-11T13:34:25.313Z,8.90
2023-01-11T13:36:56.573Z,7.77
2023-01-11T13:39:28.744Z,7.40
2023-01-11T13:41:57.875Z,7.50
2023-01-11T13:44:27.037Z,10.53
2023-01-11T13:47:01.805Z,8.83
2023-01-11T13:49:39.859Z,8.07
2023-01-11T13:52:12.820Z,8.30
2023-01-11T13:54:47.484Z,8.10
2023-01-11T13:57:18.823Z,8.87
2023-01-11T13:59:48.349Z,8.13
2023-01-11T14:02:21.062Z,12.90
2023-01-11T14:04:51.757Z,15.13
2023-01-11T14:07:26.426Z,12.20
2023-01-11T14:10:13.766Z,11.17
2023-01-11T14:12:50.677Z,10.80
2023-01-11T14:15:27.522Z,10.33
2023-01-11T14:18:11.954Z,11.20
2023-01-11T14:20:45.680Z,9.67
2023-01-11T14:23:15.161Z,8.73
2023-01-11T14:26:10.591Z,9.10
2023-01-11T14:28:51.734Z,9.67
2023-01-11T14:31:29.049Z,10.17
2023-01-11T14:34:17.424Z,10.43
2023-01-11T14:37:14.106Z,11.07
2023-01-11T14:40:01.037Z,12.40
2023-01-11T14:42:50.844Z,13.10
2023-01-11T14:45:26.846Z,14.43
2023-01-11T14:48:10.529Z,14.77
2023-01-11T14:50:45.530Z,15.70
2023-01-11T14:53:17.411Z,16.73
2023-01-11T14:55:46.539Z,18.30
2023-01-11T14:58:21.488Z,20.87
2023-01-11T15:01:13.597Z,21.93
2023-01-11T15:03:56.462Z,21.63
2023-01-11T15:06:24.756Z,21.53
2023-01-11T15:08:55.151Z,23.40
2023-01-11T15:11:37.525Z,22.03
2023-01-11T15:14:23.079Z,21.97
2023-01-11T15:17:09.282Z,22.53
2023-01-11T15:19:38.515Z,23.53
2023-01-11T15:22:06.789Z,24.37
2023-01-11T15:24:37.054Z,24.47
2023-01-11T15:27:05.459Z,27.70
2023-01-11T15:29:36.807Z,30.47
2023-01-11T15:32:16.151Z,29.43
2023-01-11T15:34:45.992Z,30.33
2023-01-11T15:37:49.789Z,30.20
2023-01-11T15:40:20.208Z,30.10
2023-01-11T15:43:32.838Z,30.60
2023-01-11T15:46:56.484Z,30.33
2023-01-11T15:50:24.808Z,31.17
2023-01-11T15:53:21.979Z,31.47
2023-01-11T15:56:07.090Z,35.17
2023-01-11T15:59:12.695Z,34.47
2023-01-11T16:01:55.006Z,33.10
2023-01-11T16:04:29.259Z,33.93
2023-01-11T16:06:59.432Z,35.73
2023-01-11T16:09:50.931Z,36.90
2023-01-11T16:12:46.088Z,36.17
2023-01-11T16:15:35.535Z,37.80
2023-01-11T16:18:11.989Z,38.93
2023-01-11T16:20:40.385Z,39.63
2023-01-11T16:23:08.804Z,41.83
2023-01-11T16:25:38.911Z,43.27
2023-01-11T16:28:07.326Z,54.37
2023-01-11T16:30:35.584Z,55.50
2023-01-11T16:33:18.279Z,60.53
2023-01-11T16:35:46.665Z,69.47
2023-01-11T16:38:17.842Z,69.43
2023-01-11T16:40:48.377Z,62.70
2023-01-11T16:43:19.068Z,61.23
2023-01-11T16:45:48.764Z,52.30
2023-01-11T16:48:19.210Z,49.33
2023-01-11T16:50:48.989Z,47.90
2023-01-11T16:53:17.773Z,47.47
2023-01-11T16:55:48.260Z,43.40
2023-01-11T16:58:22.467Z,43.30
2023-01-11T17:00:58.967Z,44.70
2023-01-11T17:03:29.165Z,45.23
2023-01-11T17:06:00.528Z,42.43
2023-01-11T17:08:30.871Z,43.20
2023-01-11T17:11:00.433Z,41.90
2023-01-11T17:14:12.764Z,41.73
2023-01-11T17:16:41.945Z,43.70
2023-01-11T17:19:15.676Z,42.43
2023-01-11T17:21:48.167Z,44.93
2023-01-11T17:24:17.262Z,44.27
2023-01-11T17:26:46.456Z,46.37
2023-01-11T17:29:17.384Z,47.83
2023-01-11T17:31:45.682Z,52.30
2023-01-11T17:34:20.730Z,54.70
2023-01-11T17:36:49.050Z,61.17
2023-01-11T17:39:21.691Z,61.40
2023-01-11T17:42:07.458Z,61.67
2023-01-11T17:44:52.885Z,57.40
2023-01-11T17:47:21.269Z,52.67
2023-01-11T17:49:52.225Z,53.27
2023-01-11T17:52:22.171Z,51.73
2023-01-11T17:55:01.728Z,52.50
2023-01-11T17:57:30.201Z,53.90
2023-01-11T18:00:18.618Z,52.37
2023-01-11T18:02:47.513Z,55.20
2023-01-11T18:05:19.240Z,54.80
2023-01-11T18:07:48.846Z,56.40
2023-01-11T18:10:21.302Z,54.30
2023-01-11T18:12:49.810Z,50.93
2023-01-11T18:15:24.248Z,54.13
2023-01-11T18:17:56.995Z,51.87
2023-01-11T18:20:48.059Z,54.47
2023-01-11T18:23:18.814Z,54.07
2023-01-11T18:25:47.283Z,51.53
2023-01-11T18:28:29.327Z,47.13
2023-01-11T18:30:59.301Z,48.43
2023-01-11T18:33:28.593Z,49.30
2023-01-11T18:35:59.823Z,53.17
2023-01-11T18:38:29.959Z,56.70
2023-01-11T18:40:58.763Z,52.87
2023-01-11T18:43:27.872Z,51.53
2023-01-11T18:45:56.356Z,51.73
2023-01-11T18:48:24.869Z,52.13
2023-01-11T18:50:54.621Z,51.50
2023-01-11T18:53:25.285Z,54.30
2023-01-11T18:55:53.669Z,54.70
2023-01-11T18:58:22.925Z,53.43
2023-01-11T19:00:51.222Z,55.40
2023-01-11T19:03:19.576Z,54.23
2023-01-11T19:05:47.898Z,53.07
2023-01-11T19:08:16.409Z,56.10
2023-01-11T19:10:47.357Z,55.07
2023-01-11T19:13:19.226Z,56.27
2023-01-11T19:15:47.702Z,56.97
2023-01-11T19:18:16.806Z,56.57
2023-01-11T19:20:45.232Z,56.67
2023-01-11T19:23:13.605Z,63.30
2023-01-11T19:25:42.001Z,62.33
2023-01-11T19:28:11.797Z,58.83
2023-01-11T19:30:40.361Z,60.90
2023-01-11T19:33:08.919Z,60.67
2023-01-11T19:35:41.087Z,57.73
2023-01-11T19:38:10.152Z,58.63
2023-01-11T19:40:38.506Z,57.30
2023-01-11T19:43:06.881Z,53.67
2023-01-11T19:45:37.088Z,54.10
2023-01-11T19:48:05.830Z,49.00
2023-01-11T19:50:34.289Z,47.37
2023-01-11T19:53:02.688Z,39.93
2023-01-11T19:55:31.131Z,36.50
2023-01-11T19:57:59.518Z,33.97
2023-01-11T20:00:27.817Z,31.53
2023-01-11T20:02:57.638Z,25.77
2023-01-11T20:05:25.971Z,24.97
2023-01-11T20:07:55.076Z,20.10
2023-01-11T20:10:23.416Z,20.50
2023-01-11T20:12:51.760Z,19.53
2023-01-11T20:15:20.109Z,17.60
2023-01-11T20:17:48.541Z,16.53
2023-01-11T20:20:18.822Z,16.63
2023-01-11T20:22:47.213Z,16.83
2023-01-11T20:25:17.678Z,17.67
2023-01-11T20:27:46.078Z,16.50
2023-01-11T20:30:14.731Z,16.80
2023-01-11T20:32:43.163Z,16.50
2023-01-11T20:35:11.680Z,16.23
2023-01-11T20:37:41.395Z,15.50
2023-01-11T20:40:13.598Z,15.53
2023-01-11T20:42:42.768Z,16.27
2023-01-11T20:45:12.236Z,14.37
2023-01-11T20:47:40.630Z,13.70
2023-01-11T20:50:10.136Z,12.50
2023-01-11T20:52:38.619Z,13.13
2023-01-11T20:55:09.358Z,10.70
2023-01-11T20:57:37.975Z,9.40
2023-01-11T21:02:38.658Z,9.13
2023-01-11T21:05:07.846Z,8.50
2023-01-11T21:07:36.394Z,8.37
2023-01-11T21:10:04.982Z,9.70
2023-01-11T21:12:34.720Z,8.93
2023-01-11T21:15:03.099Z,8.40
2023-01-11T21:17:31.531Z,9.03
2023-01-11T21:19:59.888Z,8.63
2023-01-11T21:22:28.435Z,8.77
2023-01-11T21:24:57.046Z,8.43
2023-01-11T21:27:25.401Z,7.87
2023-01-11T21:29:55.220Z,7.43
2023-01-11T21:32:23.668Z,7.83
2023-01-11T21:34:52.036Z,8.83
2023-01-11T21:37:23.953Z,7.53
2023-01-11T21:39:52.687Z,8.37
2023-01-11T21:42:20.994Z,8.17
2023-01-11T21:44:49.360Z,7.57
2023-01-11T21:47:19.860Z,7.63
2023-01-11T21:49:48.509Z,7.47
2023-01-11T21:52:17.044Z,7.33
2023-01-11T21:54:45.514Z,6.90
2023-01-11T21:57:13.821Z,6.40
2023-01-11T21:59:42.144Z,6.70
2023-01-11T22:02:11.062Z,6.47
2023-01-11T22:04:40.821Z,5.70
2023-01-11T22:07:09.410Z,5.50
2023-01-11T22:09:37.940Z,5.40
2023-01-11T22:12:06.759Z,4.87
2023-01-11T22:14:35.687Z,5.80
2023-01-11T22:17:04.634Z,5.70
2023-01-11T22:19:33.014Z,5.50
2023-01-11T22:22:02.709Z,5.30
2023-01-11T22:24:30.983Z,5.73
2023-01-11T22:26:59.388Z,4.77
2023-01-11T22:29:29.738Z,5.33
2023-01-11T22:32:01.347Z,5.50
2023-01-11T22:34:29.693Z,5.43
2023-01-11T22:36:57.956Z,4.90
2023-01-11T22:39:29.550Z,4.80
2023-01-11T22:41:57.831Z,5.10
2023-01-11T22:44:26.387Z,5.27
2023-01-11T22:46:54.710Z,4.37
2023-01-11T22:49:23.017Z,4.93
2023-01-11T22:51:51.565Z,5.13
2023-01-11T22:54:20.126Z,5.93
2023-01-11T22:56:50.036Z,5.40
2023-01-11T22:59:18.324Z,5.03
2023-01-11T23:01:46.688Z,4.90
2023-01-11T23:04:15.163Z,5.07
2023-01-11T23:06:43.804Z,5.50
2023-01-11T23:09:16.003Z,5.80
2023-01-11T23:12:02.512Z,5.23
2023-01-11T23:14:33.134Z,4.67
2023-01-11T23:17:02.267Z,5.20
2023-01-11T23:19:32.316Z,6.23
2023-01-11T23:22:00.792Z,6.80
2023-01-11T23:24:29.178Z,6.07
2023-01-11T23:26:57.833Z,6.57
2023-01-11T23:29:26.157Z,6.30
2023-01-11T23:31:56.009Z,6.33
2023-01-11T23:34:24.663Z,6.53
2023-01-11T23:36:53.101Z,6.53
2023-01-11T23:39:21.784Z,6.80
2023-01-11T23:42:07.415Z,7.10
2023-01-11T23:44:36.154Z,6.80
2023-01-11T23:47:24.164Z,6.47
2023-01-11T23:49:53.307Z,7.13
2023-01-11T23:52:22.457Z,7.67
2023-01-11T23:54:50.893Z,7.13
2023-01-11T23:57:19.553Z,6.87
2023-01-11T23:59:47.791Z,6.57
